CheckWX is a tool to help pilots better visualize weather data.  It is not intended as a substitute for an official pre-flight weather briefing.

08:02:08 UTC

GVAC TAF
Amílcar Cabral International Airport
Espargos, Cape Verde
TAF GVAC 190500Z 1906/2012 04014KT CAVOK

Mar-19@
06:00 UTC

Mar-19 @ 06:00 UTC

Mar-20@
12:00 UTC

Mar-20 @ 12:00 UTC

TAF GVAC 190500Z 1906/2012 04014KT CAVOK
Wind
  • 040° at 14 KTS
Conditions
No significant weather
Cloud Levels
  • No significant clouds